createdAt,value
2018-02-05T00:00:33.986Z,13.90
2018-02-05T00:03:02.183Z,2.63
2018-02-05T00:05:29.618Z,2.70
2018-02-05T00:07:57.058Z,11.50
2018-02-05T00:10:25.266Z,15.27
2018-02-05T00:12:52.694Z,1.93
2018-02-05T00:15:20.905Z,3.83
2018-02-05T00:17:48.398Z,4.23
2018-02-05T00:20:15.842Z,3.77
2018-02-05T00:22:43.261Z,4.63
2018-02-05T00:25:10.702Z,1.13
2018-02-05T00:27:38.899Z,4.17
2018-02-05T00:30:06.329Z,6.00
2018-02-05T00:32:34.530Z,3.33
2018-02-05T00:35:01.974Z,3.57
2018-02-05T00:37:29.417Z,4.67
2018-02-05T00:39:57.642Z,3.73
2018-02-05T00:42:25.098Z,5.03
2018-02-05T00:44:52.538Z,2.90
2018-02-05T00:47:19.966Z,5.80
2018-02-05T00:49:48.170Z,3.47
2018-02-05T00:52:15.645Z,1.97
2018-02-05T00:54:43.082Z,3.33
2018-02-05T00:57:10.557Z,2.90
2018-02-05T00:59:38.014Z,11.53
2018-02-05T01:02:05.441Z,1.47
2018-02-05T01:04:32.929Z,4.30
2018-02-05T01:07:00.359Z,2.63
2018-02-05T01:09:27.794Z,11.57
2018-02-05T01:11:55.222Z,6.33
2018-02-05T01:14:22.667Z,8.03
2018-02-05T01:16:50.854Z,3.90
2018-02-05T01:19:18.303Z,2.77
2018-02-05T01:21:46.502Z,7.50
2018-02-05T01:24:14.714Z,3.40
2018-02-05T01:26:42.149Z,6.50
2018-02-05T01:29:09.621Z,7.47
2018-02-05T01:31:37.038Z,5.30
2018-02-05T01:34:04.467Z,73.87
2018-02-05T01:36:31.909Z,2.30
2018-02-05T01:38:59.342Z,6.10
2018-02-05T01:41:26.777Z,3.17
2018-02-05T01:43:54.221Z,4.43
2018-02-05T01:46:22.422Z,3.90
2018-02-05T01:48:49.860Z,9.37
2018-02-05T01:51:18.053Z,3.03
2018-02-05T01:53:45.490Z,12.43
2018-02-05T01:56:13.694Z,2.93
2018-02-05T01:58:41.126Z,13.00
2018-02-05T02:01:08.570Z,2.50
2018-02-05T02:03:36.771Z,4.17
2018-02-05T02:06:04.238Z,4.47
2018-02-05T02:08:31.677Z,2.83
2018-02-05T02:10:59.867Z,1.00
2018-02-05T02:13:27.329Z,4.73
2018-02-05T02:15:54.774Z,1.93
2018-02-05T02:18:22.213Z,11.20
2018-02-05T02:20:50.411Z,5.03
2018-02-05T02:23:17.841Z,4.33
2018-02-05T02:25:46.042Z,4.73
2018-02-05T02:28:13.484Z,16.37
2018-02-05T02:30:40.924Z,3.23
2018-02-05T02:33:09.128Z,1.87
2018-02-05T02:35:36.575Z,5.03
2018-02-05T02:38:04.008Z,6.90
2018-02-05T02:40:32.210Z,3.70
2018-02-05T02:42:59.641Z,4.80
2018-02-05T02:45:27.847Z,4.90
2018-02-05T02:47:55.282Z,2.33
2018-02-05T02:50:22.726Z,20.10
2018-02-05T02:52:50.933Z,3.23
2018-02-05T02:55:18.370Z,1.47
2018-02-05T02:57:45.804Z,4.00
2018-02-05T03:00:14.011Z,1.10
2018-02-05T03:02:41.452Z,2.17
2018-02-05T03:05:09.658Z,3.53
2018-02-05T03:07:37.105Z,6.47
2018-02-05T03:10:04.535Z,3.27
2018-02-05T03:12:32.730Z,3.40
2018-02-05T03:15:00.175Z,12.57
2018-02-05T03:17:27.606Z,1.70
2018-02-05T03:19:55.822Z,13.80
2018-02-05T03:22:23.260Z,5.37
2018-02-05T03:24:50.702Z,4.40
2018-02-05T03:27:18.903Z,5.57
2018-02-05T03:29:46.366Z,19.10
2018-02-05T03:32:13.824Z,4.73
2018-02-05T03:34:41.242Z,5.93
2018-02-05T03:37:09.449Z,2.70
2018-02-05T03:39:36.882Z,5.50
2018-02-05T03:42:05.091Z,1.37
2018-02-05T03:44:32.530Z,3.63
2018-02-05T03:46:59.976Z,3.27
2018-02-05T03:49:28.171Z,3.27
2018-02-05T03:51:55.611Z,7.63
2018-02-05T03:54:23.043Z,3.43
2018-02-05T03:56:51.252Z,4.53
2018-02-05T03:59:18.683Z,3.40
2018-02-05T04:01:46.891Z,2.43
2018-02-05T04:04:14.322Z,2.37
2018-02-05T04:06:47.427Z,3.60
2018-02-05T04:09:14.856Z,3.10
2018-02-05T04:11:44.122Z,4.80
2018-02-05T04:14:11.567Z,2.90
2018-02-05T04:16:39.543Z,2.43
2018-02-05T04:19:06.995Z,3.43
2018-02-05T04:21:34.439Z,3.70
2018-02-05T04:24:01.880Z,2.43
2018-02-05T04:26:29.318Z,5.77
2018-02-05T04:28:56.758Z,47.53
2018-02-05T04:31:24.982Z,3.37
2018-02-05T04:33:52.404Z,3.20
2018-02-05T04:36:20.606Z,2.80
2018-02-05T04:38:48.047Z,9.60
2018-02-05T04:41:15.487Z,0.97
2018-02-05T04:43:42.917Z,0.87
2018-02-05T04:46:10.363Z,23.03
2018-02-05T04:48:37.803Z,2.73
2018-02-05T04:51:05.252Z,2.50
2018-02-05T04:53:32.694Z,1.97
2018-02-05T04:56:00.140Z,1.33
2018-02-05T04:58:27.570Z,3.87
2018-02-05T05:00:55.792Z,2.30
2018-02-05T05:03:23.222Z,5.80
2018-02-05T05:05:50.662Z,4.37
2018-02-05T05:08:18.858Z,3.23
2018-02-05T05:10:46.298Z,6.00
2018-02-05T05:13:14.516Z,7.70
2018-02-05T05:15:41.962Z,2.10
2018-02-05T05:18:09.390Z,5.10
2018-02-05T05:20:37.605Z,2.50
2018-02-05T05:23:05.030Z,13.80
2018-02-05T05:25:32.474Z,3.87
2018-02-05T05:28:00.776Z,3.33
2018-02-05T05:30:28.208Z,4.20
2018-02-05T05:32:56.398Z,3.83
2018-02-05T05:35:23.835Z,3.47
2018-02-05T05:37:52.047Z,0.70
2018-02-05T05:40:19.480Z,2.93
2018-02-05T05:42:46.918Z,1.27
2018-02-05T05:45:15.122Z,5.17
2018-02-05T05:47:42.562Z,4.13
2018-02-05T05:50:10.004Z,4.50
2018-02-05T05:52:38.207Z,7.10
2018-02-05T05:55:05.644Z,9.40
2018-02-05T05:57:33.860Z,2.93
2018-02-05T06:00:01.293Z,4.37
2018-02-05T06:02:28.735Z,21.40
2018-02-05T06:04:56.166Z,3.23
2018-02-05T06:07:23.606Z,3.63
2018-02-05T06:09:51.043Z,4.80
2018-02-05T06:12:18.483Z,2.37
2018-02-05T06:14:45.915Z,1.27
2018-02-05T06:17:13.356Z,3.73
2018-02-05T06:19:41.564Z,4.57
2018-02-05T06:22:09.043Z,2.73
2018-02-05T06:24:36.488Z,8.23
2018-02-05T06:27:03.927Z,6.40
2018-02-05T06:29:31.366Z,4.17
2018-02-05T06:31:59.589Z,1.90
2018-02-05T06:34:27.042Z,28.37
2018-02-05T06:36:54.483Z,9.27
2018-02-05T06:39:21.919Z,3.13
2018-02-05T06:41:49.362Z,1.43
2018-02-05T06:44:17.564Z,2.80
2018-02-05T06:46:45.003Z,6.00
2018-02-05T06:49:12.438Z,0.80
2018-02-05T06:51:52.610Z,4.30
2018-02-05T06:54:32.015Z,3.60
2018-02-05T06:56:59.450Z,6.73
2018-02-05T06:59:26.887Z,3.17
2018-02-05T07:01:54.335Z,16.77
2018-02-05T07:04:21.762Z,12.03
2018-02-05T07:06:49.975Z,16.83
2018-02-05T07:09:17.403Z,5.03
2018-02-05T07:11:44.882Z,3.57
2018-02-05T07:14:12.302Z,10.83
2018-02-05T07:16:40.510Z,6.40
2018-02-05T07:19:07.943Z,4.40
2018-02-05T07:21:36.139Z,1.57
2018-02-05T07:24:03.579Z,2.43
2018-02-05T07:26:31.016Z,3.30
2018-02-05T07:28:59.219Z,7.10
2018-02-05T07:31:26.666Z,10.10
2018-02-05T07:33:54.866Z,5.53
2018-02-05T07:36:22.303Z,5.60
2018-02-05T07:38:49.750Z,4.53
2018-02-05T07:41:17.179Z,4.43
2018-02-05T07:43:44.619Z,5.13
2018-02-05T07:46:12.055Z,1.47
2018-02-05T07:48:39.496Z,4.20
2018-02-05T07:51:06.939Z,1.47
2018-02-05T07:53:34.378Z,4.67
2018-02-05T07:56:02.593Z,9.50
2018-02-05T07:58:30.295Z,2.70
2018-02-05T08:00:57.710Z,3.27
2018-02-05T08:03:25.151Z,5.63
2018-02-05T08:05:52.594Z,6.17
2018-02-05T08:08:20.804Z,2.87
2018-02-05T08:10:48.235Z,3.30
2018-02-05T08:13:15.677Z,4.33
2018-02-05T08:15:43.883Z,2.07
2018-02-05T08:18:11.333Z,6.40
2018-02-05T08:20:38.755Z,2.60
2018-02-05T08:23:07.065Z,2.60
2018-02-05T08:25:34.482Z,12.50
2018-02-05T08:28:02.715Z,3.40
2018-02-05T08:30:30.187Z,9.40
2018-02-05T08:32:57.630Z,1.63
2018-02-05T08:35:25.063Z,6.77
2018-02-05T08:37:52.510Z,1.70
2018-02-05T08:40:19.951Z,3.20
2018-02-05T08:42:48.165Z,2.73
2018-02-05T08:45:15.656Z,50.93
2018-02-05T08:47:43.094Z,7.20
2018-02-05T08:50:10.520Z,4.13
2018-02-05T08:52:37.958Z,5.30
2018-02-05T08:55:05.394Z,3.27
2018-02-05T08:57:32.839Z,5.97
2018-02-05T09:00:00.267Z,18.33
2018-02-05T09:02:27.711Z,2.93
2018-02-05T09:04:55.148Z,2.70
2018-02-05T09:07:22.586Z,14.63
2018-02-05T09:09:50.796Z,8.87
2018-02-05T09:12:18.227Z,5.13
2018-02-05T09:14:45.678Z,4.67
2018-02-05T09:17:13.867Z,4.37
2018-02-05T09:19:41.317Z,13.70
2018-02-05T09:22:08.746Z,2.40
2018-02-05T09:24:36.187Z,0.80
2018-02-05T09:27:03.655Z,2.13
2018-02-05T09:29:31.083Z,5.83
2018-02-05T09:31:58.519Z,6.20
2018-02-05T09:34:25.954Z,1.83
2018-02-05T09:36:53.839Z,4.43
2018-02-05T09:39:21.267Z,1.07
2018-02-05T09:41:49.471Z,1.10
2018-02-05T09:44:16.910Z,3.13
2018-02-05T09:46:44.344Z,3.53
2018-02-05T09:49:12.589Z,11.23
2018-02-05T09:51:40.037Z,2.43
2018-02-05T09:54:08.174Z,3.70
2018-02-05T09:56:35.662Z,3.37
2018-02-05T09:59:03.103Z,3.63
2018-02-05T10:01:30.542Z,12.43
2018-02-05T10:03:58.054Z,3.33
2018-02-05T10:06:25.471Z,1.23
2018-02-05T10:08:52.918Z,4.93
2018-02-05T10:11:20.359Z,4.07
2018-02-05T10:13:48.563Z,9.60
2018-02-05T10:16:15.999Z,14.40
2018-02-05T10:18:43.439Z,3.77
2018-02-05T10:21:11.634Z,2.40
2018-02-05T10:23:39.075Z,34.40
2018-02-05T10:26:07.280Z,18.43
2018-02-05T10:28:34.723Z,1.80
2018-02-05T10:31:02.166Z,4.93
2018-02-05T10:33:29.606Z,21.77
2018-02-05T10:35:57.816Z,12.27
2018-02-05T10:38:25.251Z,6.80
2018-02-05T10:40:53.461Z,20.07
2018-02-05T10:43:20.923Z,6.87
2018-02-05T10:45:48.359Z,9.47
2018-02-05T10:48:15.798Z,6.43
2018-02-05T10:50:43.250Z,8.40
2018-02-05T10:53:11.451Z,2.27
2018-02-05T10:55:38.886Z,9.50
2018-02-05T10:58:06.340Z,7.60
2018-02-05T11:00:34.603Z,8.27
2018-02-05T11:03:01.996Z,2.50
2018-02-05T11:05:29.430Z,3.00
2018-02-05T11:07:56.952Z,3.80
2018-02-05T11:10:24.409Z,167.70
2018-02-05T11:12:51.851Z,129.03
2018-02-05T11:15:19.299Z,60.43
2018-02-05T11:17:46.734Z,75.23
2018-02-05T11:20:14.254Z,4.03
2018-02-05T11:22:42.449Z,10.90
2018-02-05T11:25:09.892Z,280.77
2018-02-05T11:27:38.102Z,100.90
2018-02-05T11:30:05.557Z,113.80
2018-02-05T11:32:32.995Z,61.53
2018-02-05T11:35:00.447Z,39.80
2018-02-05T11:37:27.901Z,94.93
2018-02-05T11:39:55.358Z,27.43
2018-02-05T11:42:23.550Z,82.07
2018-02-05T11:44:51.035Z,30.70
2018-02-05T11:47:18.514Z,29.90
2018-02-05T11:49:47.472Z,42.43
2018-02-05T11:52:14.907Z,118.20
2018-02-05T11:54:42.355Z,511.63
2018-02-05T11:57:10.315Z,500.17
2018-02-05T11:59:38.535Z,496.40
2018-02-05T12:02:05.978Z,479.53
2018-02-05T12:04:33.436Z,486.40
2018-02-05T12:07:00.886Z,477.80
2018-02-05T12:09:28.338Z,473.93
2018-02-05T12:11:55.835Z,470.90
2018-02-05T12:14:23.291Z,475.20
2018-02-05T12:16:50.843Z,357.57
2018-02-05T12:19:18.299Z,101.30
2018-02-05T12:21:45.743Z,123.77
2018-02-05T12:24:13.207Z,316.97
2018-02-05T12:26:40.655Z,349.13
2018-02-05T12:29:08.123Z,675.67
2018-02-05T12:31:35.888Z,658.90
2018-02-05T12:34:03.343Z,666.30
2018-02-05T12:36:30.795Z,668.17
2018-02-05T12:38:59.057Z,668.37
2018-02-05T12:41:26.535Z,679.93
2018-02-05T12:43:53.983Z,678.67
2018-02-05T12:46:21.436Z,633.47
2018-02-05T12:48:48.898Z,603.17
2018-02-05T12:51:16.787Z,584.83
2018-02-05T12:53:44.239Z,585.30
2018-02-05T12:56:13.194Z,577.10
2018-02-05T12:58:40.651Z,581.87
2018-02-05T13:01:24.778Z,551.57
2018-02-05T13:06:56.671Z,536.73
2018-02-05T13:09:24.163Z,539.83
2018-02-05T13:11:51.612Z,553.33
2018-02-05T13:14:19.410Z,564.73
2018-02-05T13:16:46.859Z,587.20
2018-02-05T13:19:14.315Z,570.77
2018-02-05T13:21:41.772Z,545.57
2018-02-05T13:24:09.228Z,554.67
2018-02-05T13:26:36.668Z,535.63
2018-02-05T13:29:04.224Z,523.40
2018-02-05T13:31:31.675Z,510.57
2018-02-05T13:33:59.135Z,503.70
2018-02-05T13:36:26.574Z,492.97
2018-02-05T13:38:54.156Z,495.13
2018-02-05T13:41:21.612Z,494.27
2018-02-05T13:43:49.067Z,489.20
2018-02-05T13:46:16.626Z,474.57
2018-02-05T13:48:44.159Z,466.00
2018-02-05T13:51:11.595Z,461.20
2018-02-05T13:53:39.049Z,451.27
2018-02-05T13:56:07.275Z,454.33
2018-02-05T13:58:35.218Z,476.03
2018-02-05T14:01:02.679Z,447.30
2018-02-05T14:03:30.127Z,439.77
2018-02-05T14:05:57.610Z,436.63
2018-02-05T14:08:25.088Z,434.43
2018-02-05T14:10:52.539Z,462.83
2018-02-05T14:13:20.078Z,437.47
2018-02-05T14:15:47.634Z,429.97
2018-02-05T14:18:15.075Z,434.60
2018-02-05T14:20:42.538Z,430.23
2018-02-05T14:23:10.618Z,435.93
2018-02-05T14:25:38.074Z,428.30
2018-02-05T14:28:05.514Z,403.03
2018-02-05T14:30:32.991Z,397.83
2018-02-05T14:33:00.527Z,391.70
2018-02-05T14:35:28.527Z,399.47
2018-02-05T14:37:56.083Z,418.17
2018-02-05T14:40:23.534Z,395.37
2018-02-05T14:42:50.978Z,377.67
2018-02-05T14:45:18.439Z,387.63
2018-02-05T14:47:45.887Z,393.73
2018-02-05T14:50:13.336Z,381.80
2018-02-05T14:52:41.642Z,401.83
2018-02-05T14:55:09.099Z,423.33
2018-02-05T14:57:36.945Z,424.43
2018-02-05T15:00:04.383Z,441.03
2018-02-05T15:02:31.827Z,436.80
2018-02-05T15:05:00.053Z,440.20
2018-02-05T15:07:27.493Z,432.20
2018-02-05T15:09:54.942Z,434.30
2018-02-05T15:12:22.396Z,423.57
2018-02-05T15:14:49.855Z,418.57
2018-02-05T15:17:17.291Z,419.70
2018-02-05T15:19:44.787Z,405.83
2018-02-05T15:22:12.232Z,393.20
2018-02-05T15:24:39.686Z,385.33
2018-02-05T15:27:07.133Z,427.03
2018-02-05T15:29:34.616Z,549.10
2018-02-05T15:32:02.070Z,555.57
2018-02-05T15:34:29.531Z,555.93
2018-02-05T15:36:57.154Z,539.23
2018-02-05T15:39:24.543Z,527.37
2018-02-05T15:41:52.111Z,515.37
2018-02-05T15:44:19.558Z,525.07
2018-02-05T15:46:47.022Z,504.90
2018-02-05T15:49:14.476Z,506.77
2018-02-05T15:51:41.941Z,488.23
2018-02-05T15:54:09.386Z,492.40
2018-02-05T15:56:36.842Z,516.03
2018-02-05T15:59:04.380Z,523.80
2018-02-05T16:01:31.834Z,529.43
2018-02-05T16:03:59.282Z,515.67
2018-02-05T16:06:26.746Z,506.77
2018-02-05T16:08:54.190Z,500.97
2018-02-05T16:11:21.664Z,507.00
2018-02-05T16:13:49.119Z,503.37
2018-02-05T16:16:16.574Z,513.43
2018-02-05T16:18:44.025Z,523.90
2018-02-05T16:21:11.474Z,528.90
2018-02-05T16:23:38.970Z,531.97
2018-02-05T16:26:06.440Z,530.90
2018-02-05T16:28:34.708Z,523.67
2018-02-05T16:31:02.163Z,539.77
2018-02-05T16:33:29.614Z,524.50
2018-02-05T16:35:57.174Z,518.93
2018-02-05T16:38:24.626Z,511.97
2018-02-05T16:40:52.096Z,510.33
2018-02-05T16:43:19.539Z,501.30
2018-02-05T16:45:46.995Z,504.07
2018-02-05T16:48:14.446Z,511.77
2018-02-05T16:50:41.902Z,493.67
2018-02-05T16:53:09.375Z,493.30
2018-02-05T16:55:36.828Z,503.00
2018-02-05T16:58:04.275Z,511.37
2018-02-05T17:00:31.874Z,507.83
2018-02-05T17:02:59.381Z,505.00
2018-02-05T17:05:26.830Z,521.23
2018-02-05T17:07:54.396Z,519.80
2018-02-05T17:10:21.883Z,516.27
2018-02-05T17:12:49.335Z,515.17
2018-02-05T17:15:16.791Z,518.87
2018-02-05T17:17:44.283Z,515.90
2018-02-05T17:20:12.523Z,531.30
2018-02-05T17:22:39.974Z,508.20
2018-02-05T17:25:07.435Z,511.53
2018-02-05T17:27:34.882Z,515.93
2018-02-05T17:30:02.343Z,520.73
2018-02-05T17:32:29.807Z,515.47
2018-02-05T17:34:57.263Z,520.70
2018-02-05T17:37:24.718Z,532.63
2018-02-05T17:39:52.176Z,530.40
2018-02-05T17:42:19.627Z,527.00
2018-02-05T17:44:47.107Z,525.27
2018-02-05T17:47:14.656Z,518.80
2018-02-05T17:49:42.107Z,520.87
2018-02-05T17:52:09.573Z,523.30
2018-02-05T17:54:37.029Z,524.03
2018-02-05T17:57:04.494Z,531.60
2018-02-05T17:59:31.947Z,526.87
2018-02-05T18:01:59.597Z,529.73
2018-02-05T18:04:27.155Z,524.93
2018-02-05T18:06:54.614Z,538.40
2018-02-05T18:09:22.087Z,541.47
2018-02-05T18:11:49.553Z,539.97
2018-02-05T18:14:17.318Z,541.73
2018-02-05T18:16:44.785Z,535.37
2018-02-05T18:19:13.004Z,530.47
2018-02-05T18:21:40.470Z,529.93
2018-02-05T18:24:07.922Z,537.00
2018-02-05T18:26:35.383Z,536.67
2018-02-05T18:29:02.847Z,534.47
2018-02-05T18:31:30.409Z,548.30
2018-02-05T18:33:57.863Z,544.73
2018-02-05T18:36:25.331Z,538.40
2018-02-05T18:38:52.790Z,541.27
2018-02-05T18:41:20.255Z,542.13
2018-02-05T18:43:48.468Z,551.13
2018-02-05T18:46:15.927Z,549.40
2018-02-05T18:48:43.384Z,554.47
2018-02-05T18:51:10.860Z,551.50
2018-02-05T18:53:38.316Z,552.63
2018-02-05T18:56:05.794Z,551.37
2018-02-05T18:58:33.251Z,556.30
2018-02-05T19:01:00.716Z,554.27
2018-02-05T19:03:28.271Z,550.03
2018-02-05T19:05:56.135Z,559.00
2018-02-05T19:08:23.586Z,555.83
2018-02-05T19:10:51.071Z,542.77
2018-02-05T19:13:18.603Z,537.50
2018-02-05T19:15:46.062Z,545.43
2018-02-05T19:18:13.522Z,551.20
2018-02-05T19:20:40.980Z,549.03
2018-02-05T19:23:08.438Z,541.70
2018-02-05T19:25:35.992Z,546.77
2018-02-05T19:28:03.454Z,542.13
2018-02-05T19:30:30.907Z,544.77
2018-02-05T19:32:58.372Z,542.50
2018-02-05T19:35:25.831Z,536.23
2018-02-05T19:37:53.291Z,543.60
2018-02-05T19:40:21.517Z,548.93
2018-02-05T19:42:49.011Z,554.27
2018-02-05T19:45:16.473Z,545.27
2018-02-05T19:47:44.342Z,553.73
2018-02-05T19:50:11.895Z,548.50
2018-02-05T19:52:39.347Z,537.37
2018-02-05T19:55:06.914Z,539.07
2018-02-05T19:57:34.467Z,543.67
2018-02-05T20:00:01.927Z,573.47
2018-02-05T20:02:29.393Z,552.53
2018-02-05T20:04:56.838Z,547.47
2018-02-05T20:07:24.305Z,547.80
2018-02-05T20:09:51.762Z,547.63
2018-02-05T20:12:19.238Z,548.60
2018-02-05T20:14:47.455Z,543.87
2018-02-05T20:17:14.939Z,554.70
2018-02-05T20:19:42.502Z,537.67
2018-02-05T20:22:10.064Z,543.25
2018-02-05T20:24:37.621Z,543.15
2018-02-05T20:27:05.180Z,544.25
2018-02-05T20:29:32.835Z,539.20
2018-02-05T20:32:00.308Z,540.17
2018-02-05T20:34:27.778Z,542.10
2018-02-05T20:36:56.005Z,551.42
2018-02-05T20:39:23.463Z,546.50
2018-02-05T20:41:50.931Z,547.40
2018-02-05T20:44:18.398Z,548.05
2018-02-05T20:46:45.959Z,557.90
2018-02-05T20:49:13.415Z,550.83
2018-02-05T20:51:41.695Z,553.50
2018-02-05T20:54:09.160Z,546.90
2018-02-05T20:56:36.706Z,539.55
2018-02-05T20:59:04.261Z,544.95
2018-02-05T21:01:32.655Z,550.12
2018-02-05T21:04:00.815Z,539.63
2018-02-05T21:06:28.274Z,526.28
2018-02-05T21:08:55.739Z,527.45
2018-02-05T21:11:23.297Z,542.47
2018-02-05T21:13:50.754Z,536.88
2018-02-05T21:16:18.307Z,550.03
2018-02-05T21:18:45.782Z,540.22
2018-02-05T21:21:13.315Z,549.40
2018-02-05T21:23:40.783Z,547.33
2018-02-05T21:26:08.244Z,549.88
2018-02-05T21:28:35.711Z,542.15
2018-02-05T21:31:03.292Z,549.60
2018-02-05T21:33:30.715Z,550.20
2018-02-05T21:35:58.263Z,558.80
2018-02-05T21:38:25.731Z,549.78
2018-02-05T21:40:53.190Z,542.03
2018-02-05T21:43:20.659Z,541.10
2018-02-05T21:45:48.920Z,550.15
2018-02-05T21:48:16.472Z,545.15
2018-02-05T21:50:43.927Z,544.05
2018-02-05T21:53:11.392Z,544.50
2018-02-05T21:55:38.947Z,545.22
2018-02-05T21:58:06.501Z,544.53
2018-02-05T22:00:33.954Z,542.67
2018-02-05T22:03:01.424Z,537.75
2018-02-05T22:05:28.947Z,536.70
2018-02-05T22:07:56.419Z,539.78
2018-02-05T22:10:23.879Z,542.53
2018-02-05T22:12:51.343Z,542.83
2018-02-05T22:15:18.903Z,547.72
2018-02-05T22:17:46.363Z,557.33
2018-02-05T22:20:13.822Z,549.08
2018-02-05T22:22:41.434Z,546.47
2018-02-05T22:25:09.644Z,544.80
2018-02-05T22:27:37.110Z,547.47
2018-02-05T22:30:04.563Z,546.12
2018-02-05T22:32:32.123Z,549.20
2018-02-05T22:34:59.591Z,552.35
2018-02-05T22:37:27.048Z,553.05
2018-02-05T22:39:54.594Z,548.78
2018-02-05T22:42:22.062Z,550.17
2018-02-05T22:44:49.610Z,548.10
2018-02-05T22:47:17.079Z,547.70
2018-02-05T22:49:44.846Z,556.47
2018-02-05T22:52:12.311Z,543.33
2018-02-05T22:54:39.775Z,543.58
2018-02-05T22:57:07.227Z,545.12
2018-02-05T22:59:35.457Z,542.70
2018-02-05T23:02:02.911Z,545.33
2018-02-05T23:04:30.374Z,551.03
2018-02-05T23:06:57.834Z,544.92
2018-02-05T23:09:25.339Z,545.83
2018-02-05T23:11:52.759Z,540.78
2018-02-05T23:14:20.218Z,430.33
2018-02-05T23:16:47.679Z,538.55
2018-02-05T23:19:15.142Z,539.95
2018-02-05T23:21:42.886Z,540.25
2018-02-05T23:24:10.359Z,542.53
2018-02-05T23:26:37.812Z,544.80
2018-02-05T23:29:05.367Z,546.50
2018-02-05T23:31:33.072Z,540.88
2018-02-05T23:34:01.311Z,546.70
2018-02-05T23:36:28.862Z,547.13
2018-02-05T23:38:56.323Z,544.95
2018-02-05T23:41:23.783Z,548.10
2018-02-05T23:43:51.248Z,545.70
2018-02-05T23:46:18.702Z,543.17
2018-02-05T23:48:46.163Z,543.55
2018-02-05T23:51:13.618Z,547.05
2018-02-05T23:53:41.078Z,551.45
2018-02-05T23:56:08.531Z,542.92
2018-02-05T23:58:35.987Z,539.45
